<?xml version="1.0" encoding="UTF-8" standalone="no" ?>
<gpx xmlns="http://www.topografix.com/GPX/1/1" xmlns:xsi="http://www.w3.org/2001/XMLSchema-instance" xsi:schemaLocation="http://www.topografix.com/GPX/1/1 http://www.topografix.com/GPX/1/1/gpx.xsd" version="1.1" creator="VisuGPX - https://www.visugpx.com">
  <metadata>
    <name>FONTAINEBLEAU - La Plaine Verte 1</name>
    <desc><![CDATA[la plaine verte avec J-C GRENE]]></desc>
  </metadata>
  <trk>
    <name><![CDATA[--Bourron-Marlotte-- OR-5532831:la plaine vert 2]]></name>
    <trkseg>
      <trkpt lat="48.35389" lon="2.72799">
        <ele>95</ele>
        <time>2015-12-13T17:32:12Z</time>
      </trkpt>
      <trkpt lat="48.35417" lon="2.72758">
        <ele>96</ele>
        <time>2015-12-13T17:34:12Z</time>
      </trkpt>
      <trkpt lat="48.35431" lon="2.72743">
        <ele>97</ele>
        <time>2015-12-13T17:36:12Z</time>
      </trkpt>
      <trkpt lat="48.35458" lon="2.72712">
        <ele>98</ele>
        <time>2015-12-13T17:38:12Z</time>
      </trkpt>
      <trkpt lat="48.355" lon="2.72661">
        <ele>101</ele>
        <time>2015-12-13T17:40:12Z</time>
      </trkpt>
      <trkpt lat="48.35514" lon="2.72646">
        <ele>103</ele>
        <time>2015-12-13T17:42:12Z</time>
      </trkpt>
      <trkpt lat="48.35526" lon="2.72638">
        <ele>105</ele>
        <time>2015-12-13T17:44:12Z</time>
      </trkpt>
      <trkpt lat="48.35536" lon="2.72632">
        <ele>106</ele>
        <time>2015-12-13T17:46:12Z</time>
      </trkpt>
      <trkpt lat="48.35542" lon="2.72624">
        <ele>107</ele>
        <time>2015-12-13T17:48:12Z</time>
      </trkpt>
      <trkpt lat="48.35542" lon="2.72614">
        <ele>107</ele>
        <time>2015-12-13T17:50:12Z</time>
      </trkpt>
      <trkpt lat="48.35546" lon="2.72603">
        <ele>108</ele>
        <time>2015-12-13T17:52:12Z</time>
      </trkpt>
      <trkpt lat="48.35551" lon="2.72597">
        <ele>108</ele>
        <time>2015-12-13T17:54:12Z</time>
      </trkpt>
      <trkpt lat="48.35572" lon="2.72588">
        <ele>110</ele>
        <time>2015-12-13T17:56:12Z</time>
      </trkpt>
      <trkpt lat="48.35594" lon="2.72583">
        <ele>110</ele>
        <time>2015-12-13T17:58:12Z</time>
      </trkpt>
      <trkpt lat="48.35618" lon="2.7258">
        <ele>109</ele>
        <time>2015-12-13T18:00:12Z</time>
      </trkpt>
      <trkpt lat="48.35636" lon="2.72581">
        <ele>108</ele>
        <time>2015-12-13T18:02:12Z</time>
      </trkpt>
      <trkpt lat="48.35651" lon="2.72581">
        <ele>108</ele>
        <time>2015-12-13T18:04:12Z</time>
      </trkpt>
      <trkpt lat="48.35666" lon="2.72581">
        <ele>107</ele>
        <time>2015-12-13T18:06:12Z</time>
      </trkpt>
      <trkpt lat="48.35685" lon="2.72587">
        <ele>106</ele>
        <time>2015-12-13T18:08:12Z</time>
      </trkpt>
      <trkpt lat="48.35679" lon="2.72596">
        <ele>107</ele>
        <time>2015-12-13T18:10:12Z</time>
      </trkpt>
      <trkpt lat="48.35668" lon="2.726">
        <ele>108</ele>
        <time>2015-12-13T18:12:12Z</time>
      </trkpt>
      <trkpt lat="48.35658" lon="2.72607">
        <ele>109</ele>
        <time>2015-12-13T18:14:12Z</time>
      </trkpt>
      <trkpt lat="48.35649" lon="2.72611">
        <ele>110</ele>
        <time>2015-12-13T18:16:12Z</time>
      </trkpt>
      <trkpt lat="48.35638" lon="2.72614">
        <ele>110</ele>
        <time>2015-12-13T18:18:12Z</time>
      </trkpt>
      <trkpt lat="48.35628" lon="2.72609">
        <ele>110</ele>
        <time>2015-12-13T18:20:12Z</time>
      </trkpt>
      <trkpt lat="48.35617" lon="2.72603">
        <ele>110</ele>
        <time>2015-12-13T18:22:12Z</time>
      </trkpt>
      <trkpt lat="48.35609" lon="2.72598">
        <ele>110</ele>
        <time>2015-12-13T18:24:12Z</time>
      </trkpt>
      <trkpt lat="48.356" lon="2.72599">
        <ele>111</ele>
        <time>2015-12-13T18:26:12Z</time>
      </trkpt>
      <trkpt lat="48.35588" lon="2.72607">
        <ele>111</ele>
        <time>2015-12-13T18:28:12Z</time>
      </trkpt>
      <trkpt lat="48.35576" lon="2.72615">
        <ele>111</ele>
        <time>2015-12-13T18:30:12Z</time>
      </trkpt>
      <trkpt lat="48.35564" lon="2.72625">
        <ele>109</ele>
        <time>2015-12-13T18:32:12Z</time>
      </trkpt>
      <trkpt lat="48.35557" lon="2.72637">
        <ele>109</ele>
        <time>2015-12-13T18:34:12Z</time>
      </trkpt>
      <trkpt lat="48.35549" lon="2.72648">
        <ele>108</ele>
        <time>2015-12-13T18:36:12Z</time>
      </trkpt>
      <trkpt lat="48.35543" lon="2.72658">
        <ele>107</ele>
        <time>2015-12-13T18:38:12Z</time>
      </trkpt>
      <trkpt lat="48.35538" lon="2.72666">
        <ele>106</ele>
        <time>2015-12-13T18:40:12Z</time>
      </trkpt>
      <trkpt lat="48.35527" lon="2.72675">
        <ele>105</ele>
        <time>2015-12-13T18:42:12Z</time>
      </trkpt>
      <trkpt lat="48.3552" lon="2.72681">
        <ele>104</ele>
        <time>2015-12-13T18:44:12Z</time>
      </trkpt>
      <trkpt lat="48.35516" lon="2.72691">
        <ele>103</ele>
        <time>2015-12-13T18:46:12Z</time>
      </trkpt>
      <trkpt lat="48.3551" lon="2.72713">
        <ele>102</ele>
        <time>2015-12-13T18:48:12Z</time>
      </trkpt>
      <trkpt lat="48.35506" lon="2.72739">
        <ele>101</ele>
        <time>2015-12-13T18:50:12Z</time>
      </trkpt>
      <trkpt lat="48.35504" lon="2.72761">
        <ele>101</ele>
        <time>2015-12-13T18:52:12Z</time>
      </trkpt>
      <trkpt lat="48.35501" lon="2.72784">
        <ele>101</ele>
        <time>2015-12-13T18:54:12Z</time>
      </trkpt>
      <trkpt lat="48.35499" lon="2.72798">
        <ele>101</ele>
        <time>2015-12-13T18:56:12Z</time>
      </trkpt>
      <trkpt lat="48.35498" lon="2.7282">
        <ele>101</ele>
        <time>2015-12-13T18:58:12Z</time>
      </trkpt>
      <trkpt lat="48.35498" lon="2.72838">
        <ele>101</ele>
        <time>2015-12-13T19:00:12Z</time>
      </trkpt>
      <trkpt lat="48.35497" lon="2.72854">
        <ele>101</ele>
        <time>2015-12-13T19:02:12Z</time>
      </trkpt>
      <trkpt lat="48.35496" lon="2.72872">
        <ele>100</ele>
        <time>2015-12-13T19:04:12Z</time>
      </trkpt>
      <trkpt lat="48.35496" lon="2.72884">
        <ele>100</ele>
        <time>2015-12-13T19:06:12Z</time>
      </trkpt>
      <trkpt lat="48.35499" lon="2.72899">
        <ele>100</ele>
        <time>2015-12-13T19:08:12Z</time>
      </trkpt>
      <trkpt lat="48.35495" lon="2.72911">
        <ele>100</ele>
        <time>2015-12-13T19:10:12Z</time>
      </trkpt>
      <trkpt lat="48.35485" lon="2.72925">
        <ele>99</ele>
        <time>2015-12-13T19:12:12Z</time>
      </trkpt>
      <trkpt lat="48.35469" lon="2.72943">
        <ele>99</ele>
        <time>2015-12-13T19:14:12Z</time>
      </trkpt>
      <trkpt lat="48.35455" lon="2.72964">
        <ele>99</ele>
        <time>2015-12-13T19:16:12Z</time>
      </trkpt>
      <trkpt lat="48.35443" lon="2.7298">
        <ele>99</ele>
        <time>2015-12-13T19:18:12Z</time>
      </trkpt>
      <trkpt lat="48.35434" lon="2.7299">
        <ele>98</ele>
        <time>2015-12-13T19:20:12Z</time>
      </trkpt>
      <trkpt lat="48.35425" lon="2.72999">
        <ele>98</ele>
        <time>2015-12-13T19:22:12Z</time>
      </trkpt>
      <trkpt lat="48.35417" lon="2.73015">
        <ele>98</ele>
        <time>2015-12-13T19:24:12Z</time>
      </trkpt>
      <trkpt lat="48.35409" lon="2.73026">
        <ele>99</ele>
        <time>2015-12-13T19:26:12Z</time>
      </trkpt>
      <trkpt lat="48.35403" lon="2.73033">
        <ele>100</ele>
        <time>2015-12-13T19:28:12Z</time>
      </trkpt>
      <trkpt lat="48.35394" lon="2.73037">
        <ele>100</ele>
        <time>2015-12-13T19:30:12Z</time>
      </trkpt>
      <trkpt lat="48.35386" lon="2.73035">
        <ele>101</ele>
        <time>2015-12-13T19:32:12Z</time>
      </trkpt>
      <trkpt lat="48.35377" lon="2.73035">
        <ele>102</ele>
        <time>2015-12-13T19:34:12Z</time>
      </trkpt>
      <trkpt lat="48.35366" lon="2.7304">
        <ele>103</ele>
        <time>2015-12-13T19:36:12Z</time>
      </trkpt>
      <trkpt lat="48.35366" lon="2.73026">
        <ele>102</ele>
        <time>2015-12-13T19:38:12Z</time>
      </trkpt>
      <trkpt lat="48.35359" lon="2.7303">
        <ele>103</ele>
        <time>2015-12-13T19:40:12Z</time>
      </trkpt>
      <trkpt lat="48.35353" lon="2.73024">
        <ele>103</ele>
        <time>2015-12-13T19:42:12Z</time>
      </trkpt>
      <trkpt lat="48.35348" lon="2.73008">
        <ele>102</ele>
        <time>2015-12-13T19:44:12Z</time>
      </trkpt>
      <trkpt lat="48.35341" lon="2.73004">
        <ele>103</ele>
        <time>2015-12-13T19:46:12Z</time>
      </trkpt>
      <trkpt lat="48.35336" lon="2.73017">
        <ele>104</ele>
        <time>2015-12-13T19:48:12Z</time>
      </trkpt>
      <trkpt lat="48.35334" lon="2.73044">
        <ele>105</ele>
        <time>2015-12-13T19:50:12Z</time>
      </trkpt>
      <trkpt lat="48.35335" lon="2.73055">
        <ele>106</ele>
        <time>2015-12-13T19:52:12Z</time>
      </trkpt>
      <trkpt lat="48.35336" lon="2.73069">
        <ele>106</ele>
        <time>2015-12-13T19:54:12Z</time>
      </trkpt>
      <trkpt lat="48.35333" lon="2.73086">
        <ele>107</ele>
        <time>2015-12-13T19:56:12Z</time>
      </trkpt>
      <trkpt lat="48.35332" lon="2.73101">
        <ele>108</ele>
        <time>2015-12-13T19:58:12Z</time>
      </trkpt>
      <trkpt lat="48.35333" lon="2.73116">
        <ele>109</ele>
        <time>2015-12-13T20:00:12Z</time>
      </trkpt>
      <trkpt lat="48.35335" lon="2.73133">
        <ele>110</ele>
        <time>2015-12-13T20:02:12Z</time>
      </trkpt>
      <trkpt lat="48.35338" lon="2.73147">
        <ele>111</ele>
        <time>2015-12-13T20:04:12Z</time>
      </trkpt>
      <trkpt lat="48.35338" lon="2.73159">
        <ele>112</ele>
        <time>2015-12-13T20:06:12Z</time>
      </trkpt>
      <trkpt lat="48.35332" lon="2.73173">
        <ele>113</ele>
        <time>2015-12-13T20:08:12Z</time>
      </trkpt>
      <trkpt lat="48.35327" lon="2.73181">
        <ele>113</ele>
        <time>2015-12-13T20:10:12Z</time>
      </trkpt>
      <trkpt lat="48.35327" lon="2.73195">
        <ele>114</ele>
        <time>2015-12-13T20:12:12Z</time>
      </trkpt>
      <trkpt lat="48.35328" lon="2.73211">
        <ele>114</ele>
        <time>2015-12-13T20:14:12Z</time>
      </trkpt>
      <trkpt lat="48.35327" lon="2.73229">
        <ele>115</ele>
        <time>2015-12-13T20:16:12Z</time>
      </trkpt>
      <trkpt lat="48.35327" lon="2.73244">
        <ele>116</ele>
        <time>2015-12-13T20:18:12Z</time>
      </trkpt>
      <trkpt lat="48.35324" lon="2.73257">
        <ele>116</ele>
        <time>2015-12-13T20:20:12Z</time>
      </trkpt>
      <trkpt lat="48.35322" lon="2.73271">
        <ele>116</ele>
        <time>2015-12-13T20:22:12Z</time>
      </trkpt>
      <trkpt lat="48.35321" lon="2.73287">
        <ele>117</ele>
        <time>2015-12-13T20:24:12Z</time>
      </trkpt>
      <trkpt lat="48.35324" lon="2.73296">
        <ele>117</ele>
        <time>2015-12-13T20:26:12Z</time>
      </trkpt>
      <trkpt lat="48.35329" lon="2.73308">
        <ele>118</ele>
        <time>2015-12-13T20:28:12Z</time>
      </trkpt>
      <trkpt lat="48.35334" lon="2.73322">
        <ele>119</ele>
        <time>2015-12-13T20:30:12Z</time>
      </trkpt>
      <trkpt lat="48.35336" lon="2.73331">
        <ele>119</ele>
        <time>2015-12-13T20:32:12Z</time>
      </trkpt>
      <trkpt lat="48.35336" lon="2.73347">
        <ele>120</ele>
        <time>2015-12-13T20:34:12Z</time>
      </trkpt>
      <trkpt lat="48.35332" lon="2.73363">
        <ele>121</ele>
        <time>2015-12-13T20:36:12Z</time>
      </trkpt>
      <trkpt lat="48.35335" lon="2.73371">
        <ele>122</ele>
        <time>2015-12-13T20:38:12Z</time>
      </trkpt>
      <trkpt lat="48.35337" lon="2.7338">
        <ele>122</ele>
        <time>2015-12-13T20:40:12Z</time>
      </trkpt>
      <trkpt lat="48.3533" lon="2.73386">
        <ele>123</ele>
        <time>2015-12-13T20:42:12Z</time>
      </trkpt>
      <trkpt lat="48.35321" lon="2.73386">
        <ele>123</ele>
        <time>2015-12-13T20:44:12Z</time>
      </trkpt>
      <trkpt lat="48.35314" lon="2.73395">
        <ele>123</ele>
        <time>2015-12-13T20:46:12Z</time>
      </trkpt>
      <trkpt lat="48.35309" lon="2.73408">
        <ele>124</ele>
        <time>2015-12-13T20:48:12Z</time>
      </trkpt>
      <trkpt lat="48.35303" lon="2.73415">
        <ele>125</ele>
        <time>2015-12-13T20:50:12Z</time>
      </trkpt>
      <trkpt lat="48.35291" lon="2.73418">
        <ele>125</ele>
        <time>2015-12-13T20:52:12Z</time>
      </trkpt>
      <trkpt lat="48.35281" lon="2.73419">
        <ele>125</ele>
        <time>2015-12-13T20:54:12Z</time>
      </trkpt>
      <trkpt lat="48.35269" lon="2.73425">
        <ele>125</ele>
        <time>2015-12-13T20:56:12Z</time>
      </trkpt>
      <trkpt lat="48.35255" lon="2.7344">
        <ele>125</ele>
        <time>2015-12-13T20:58:12Z</time>
      </trkpt>
      <trkpt lat="48.35246" lon="2.7345">
        <ele>126</ele>
        <time>2015-12-13T21:00:12Z</time>
      </trkpt>
      <trkpt lat="48.35239" lon="2.73462">
        <ele>125</ele>
        <time>2015-12-13T21:02:12Z</time>
      </trkpt>
      <trkpt lat="48.35234" lon="2.73468">
        <ele>125</ele>
        <time>2015-12-13T21:04:12Z</time>
      </trkpt>
      <trkpt lat="48.35227" lon="2.73475">
        <ele>125</ele>
        <time>2015-12-13T21:06:12Z</time>
      </trkpt>
      <trkpt lat="48.35217" lon="2.73479">
        <ele>123</ele>
        <time>2015-12-13T21:08:12Z</time>
      </trkpt>
      <trkpt lat="48.35204" lon="2.7348">
        <ele>122</ele>
        <time>2015-12-13T21:10:12Z</time>
      </trkpt>
      <trkpt lat="48.35195" lon="2.73484">
        <ele>121</ele>
        <time>2015-12-13T21:12:12Z</time>
      </trkpt>
      <trkpt lat="48.35188" lon="2.73492">
        <ele>120</ele>
        <time>2015-12-13T21:14:12Z</time>
      </trkpt>
      <trkpt lat="48.35186" lon="2.735">
        <ele>120</ele>
        <time>2015-12-13T21:16:12Z</time>
      </trkpt>
      <trkpt lat="48.35193" lon="2.73508">
        <ele>121</ele>
        <time>2015-12-13T21:18:12Z</time>
      </trkpt>
      <trkpt lat="48.35199" lon="2.73519">
        <ele>122</ele>
        <time>2015-12-13T21:20:12Z</time>
      </trkpt>
      <trkpt lat="48.35205" lon="2.73531">
        <ele>123</ele>
        <time>2015-12-13T21:22:12Z</time>
      </trkpt>
      <trkpt lat="48.3521" lon="2.73544">
        <ele>123</ele>
        <time>2015-12-13T21:24:12Z</time>
      </trkpt>
      <trkpt lat="48.35214" lon="2.7356">
        <ele>124</ele>
        <time>2015-12-13T21:26:12Z</time>
      </trkpt>
      <trkpt lat="48.35218" lon="2.73575">
        <ele>125</ele>
        <time>2015-12-13T21:28:12Z</time>
      </trkpt>
      <trkpt lat="48.35227" lon="2.73583">
        <ele>126</ele>
        <time>2015-12-13T21:30:12Z</time>
      </trkpt>
      <trkpt lat="48.35236" lon="2.73588">
        <ele>127</ele>
        <time>2015-12-13T21:32:12Z</time>
      </trkpt>
      <trkpt lat="48.35249" lon="2.73584">
        <ele>128</ele>
        <time>2015-12-13T21:34:12Z</time>
      </trkpt>
      <trkpt lat="48.35263" lon="2.73586">
        <ele>128</ele>
        <time>2015-12-13T21:36:12Z</time>
      </trkpt>
      <trkpt lat="48.35274" lon="2.73588">
        <ele>129</ele>
        <time>2015-12-13T21:38:12Z</time>
      </trkpt>
      <trkpt lat="48.35283" lon="2.73596">
        <ele>129</ele>
        <time>2015-12-13T21:40:12Z</time>
      </trkpt>
      <trkpt lat="48.3529" lon="2.73607">
        <ele>129</ele>
        <time>2015-12-13T21:42:12Z</time>
      </trkpt>
      <trkpt lat="48.35296" lon="2.73616">
        <ele>129</ele>
        <time>2015-12-13T21:44:12Z</time>
      </trkpt>
      <trkpt lat="48.353" lon="2.73636">
        <ele>130</ele>
        <time>2015-12-13T21:46:12Z</time>
      </trkpt>
      <trkpt lat="48.35308" lon="2.73653">
        <ele>130</ele>
        <time>2015-12-13T21:48:12Z</time>
      </trkpt>
      <trkpt lat="48.35316" lon="2.73669">
        <ele>130</ele>
        <time>2015-12-13T21:50:12Z</time>
      </trkpt>
      <trkpt lat="48.35336" lon="2.73709">
        <ele>132</ele>
        <time>2015-12-13T21:52:12Z</time>
      </trkpt>
      <trkpt lat="48.35344" lon="2.73728">
        <ele>132</ele>
        <time>2015-12-13T21:54:12Z</time>
      </trkpt>
      <trkpt lat="48.35355" lon="2.73746">
        <ele>132</ele>
        <time>2015-12-13T21:56:12Z</time>
      </trkpt>
      <trkpt lat="48.35368" lon="2.73758">
        <ele>131</ele>
        <time>2015-12-13T21:58:12Z</time>
      </trkpt>
      <trkpt lat="48.35377" lon="2.73771">
        <ele>130</ele>
        <time>2015-12-13T22:00:12Z</time>
      </trkpt>
      <trkpt lat="48.35383" lon="2.7378">
        <ele>130</ele>
        <time>2015-12-13T22:02:12Z</time>
      </trkpt>
      <trkpt lat="48.35388" lon="2.73789">
        <ele>130</ele>
        <time>2015-12-13T22:04:12Z</time>
      </trkpt>
      <trkpt lat="48.35396" lon="2.73792">
        <ele>129</ele>
        <time>2015-12-13T22:06:12Z</time>
      </trkpt>
      <trkpt lat="48.35405" lon="2.73784">
        <ele>129</ele>
        <time>2015-12-13T22:08:12Z</time>
      </trkpt>
      <trkpt lat="48.35417" lon="2.7376">
        <ele>128</ele>
        <time>2015-12-13T22:10:12Z</time>
      </trkpt>
      <trkpt lat="48.35427" lon="2.73728">
        <ele>129</ele>
        <time>2015-12-13T22:12:12Z</time>
      </trkpt>
      <trkpt lat="48.3544" lon="2.73697">
        <ele>131</ele>
        <time>2015-12-13T22:14:12Z</time>
      </trkpt>
      <trkpt lat="48.35446" lon="2.73681">
        <ele>132</ele>
        <time>2015-12-13T22:16:12Z</time>
      </trkpt>
      <trkpt lat="48.35455" lon="2.73671">
        <ele>133</ele>
        <time>2015-12-13T22:18:12Z</time>
      </trkpt>
      <trkpt lat="48.35464" lon="2.73669">
        <ele>134</ele>
        <time>2015-12-13T22:20:12Z</time>
      </trkpt>
      <trkpt lat="48.35473" lon="2.73673">
        <ele>135</ele>
        <time>2015-12-13T22:22:12Z</time>
      </trkpt>
      <trkpt lat="48.35479" lon="2.73682">
        <ele>135</ele>
        <time>2015-12-13T22:24:12Z</time>
      </trkpt>
      <trkpt lat="48.35483" lon="2.73693">
        <ele>135</ele>
        <time>2015-12-13T22:26:12Z</time>
      </trkpt>
      <trkpt lat="48.3549" lon="2.73702">
        <ele>135</ele>
        <time>2015-12-13T22:28:12Z</time>
      </trkpt>
      <trkpt lat="48.35499" lon="2.73708">
        <ele>135</ele>
        <time>2015-12-13T22:30:12Z</time>
      </trkpt>
      <trkpt lat="48.35513" lon="2.73717">
        <ele>135</ele>
        <time>2015-12-13T22:32:12Z</time>
      </trkpt>
      <trkpt lat="48.35525" lon="2.73728">
        <ele>135</ele>
        <time>2015-12-13T22:34:12Z</time>
      </trkpt>
      <trkpt lat="48.35535" lon="2.73737">
        <ele>136</ele>
        <time>2015-12-13T22:36:12Z</time>
      </trkpt>
      <trkpt lat="48.35542" lon="2.73749">
        <ele>136</ele>
        <time>2015-12-13T22:38:12Z</time>
      </trkpt>
      <trkpt lat="48.35551" lon="2.7376">
        <ele>136</ele>
        <time>2015-12-13T22:40:12Z</time>
      </trkpt>
      <trkpt lat="48.35558" lon="2.73777">
        <ele>136</ele>
        <time>2015-12-13T22:42:12Z</time>
      </trkpt>
      <trkpt lat="48.35563" lon="2.73789">
        <ele>137</ele>
        <time>2015-12-13T22:44:12Z</time>
      </trkpt>
      <trkpt lat="48.35568" lon="2.73801">
        <ele>137</ele>
        <time>2015-12-13T22:46:12Z</time>
      </trkpt>
      <trkpt lat="48.35575" lon="2.7381">
        <ele>137</ele>
        <time>2015-12-13T22:48:12Z</time>
      </trkpt>
      <trkpt lat="48.35582" lon="2.7382">
        <ele>138</ele>
        <time>2015-12-13T22:50:12Z</time>
      </trkpt>
      <trkpt lat="48.35587" lon="2.73829">
        <ele>138</ele>
        <time>2015-12-13T22:52:12Z</time>
      </trkpt>
      <trkpt lat="48.35597" lon="2.73841">
        <ele>137</ele>
        <time>2015-12-13T22:54:12Z</time>
      </trkpt>
      <trkpt lat="48.35603" lon="2.73825">
        <ele>137</ele>
        <time>2015-12-13T22:56:12Z</time>
      </trkpt>
      <trkpt lat="48.35609" lon="2.73809">
        <ele>137</ele>
        <time>2015-12-13T22:58:12Z</time>
      </trkpt>
      <trkpt lat="48.35617" lon="2.73786">
        <ele>136</ele>
        <time>2015-12-13T23:00:12Z</time>
      </trkpt>
      <trkpt lat="48.35627" lon="2.73769">
        <ele>136</ele>
        <time>2015-12-13T23:02:12Z</time>
      </trkpt>
      <trkpt lat="48.35639" lon="2.73752">
        <ele>136</ele>
        <time>2015-12-13T23:04:12Z</time>
      </trkpt>
      <trkpt lat="48.35657" lon="2.73727">
        <ele>135</ele>
        <time>2015-12-13T23:06:12Z</time>
      </trkpt>
      <trkpt lat="48.35674" lon="2.73706">
        <ele>135</ele>
        <time>2015-12-13T23:08:12Z</time>
      </trkpt>
      <trkpt lat="48.35685" lon="2.73691">
        <ele>134</ele>
        <time>2015-12-13T23:10:12Z</time>
      </trkpt>
      <trkpt lat="48.35697" lon="2.73664">
        <ele>133</ele>
        <time>2015-12-13T23:12:12Z</time>
      </trkpt>
      <trkpt lat="48.35713" lon="2.73619">
        <ele>131</ele>
        <time>2015-12-13T23:14:12Z</time>
      </trkpt>
      <trkpt lat="48.35719" lon="2.73594">
        <ele>130</ele>
        <time>2015-12-13T23:16:12Z</time>
      </trkpt>
      <trkpt lat="48.35727" lon="2.7352">
        <ele>130</ele>
        <time>2015-12-13T23:18:12Z</time>
      </trkpt>
      <trkpt lat="48.35724" lon="2.73477">
        <ele>130</ele>
        <time>2015-12-13T23:20:12Z</time>
      </trkpt>
      <trkpt lat="48.35723" lon="2.73463">
        <ele>130</ele>
        <time>2015-12-13T23:22:12Z</time>
      </trkpt>
      <trkpt lat="48.35724" lon="2.73431">
        <ele>130</ele>
        <time>2015-12-13T23:24:12Z</time>
      </trkpt>
      <trkpt lat="48.3572" lon="2.73402">
        <ele>130</ele>
        <time>2015-12-13T23:26:12Z</time>
      </trkpt>
      <trkpt lat="48.35712" lon="2.73372">
        <ele>130</ele>
        <time>2015-12-13T23:28:12Z</time>
      </trkpt>
      <trkpt lat="48.35706" lon="2.73345">
        <ele>131</ele>
        <time>2015-12-13T23:30:12Z</time>
      </trkpt>
      <trkpt lat="48.35697" lon="2.73312">
        <ele>131</ele>
        <time>2015-12-13T23:32:12Z</time>
      </trkpt>
      <trkpt lat="48.35691" lon="2.73283">
        <ele>132</ele>
        <time>2015-12-13T23:34:12Z</time>
      </trkpt>
      <trkpt lat="48.35689" lon="2.73269">
        <ele>132</ele>
        <time>2015-12-13T23:36:12Z</time>
      </trkpt>
      <trkpt lat="48.35687" lon="2.73244">
        <ele>133</ele>
        <time>2015-12-13T23:38:12Z</time>
      </trkpt>
      <trkpt lat="48.35685" lon="2.73228">
        <ele>133</ele>
        <time>2015-12-13T23:40:12Z</time>
      </trkpt>
      <trkpt lat="48.35684" lon="2.73216">
        <ele>133</ele>
        <time>2015-12-13T23:42:12Z</time>
      </trkpt>
      <trkpt lat="48.35681" lon="2.73183">
        <ele>133</ele>
        <time>2015-12-13T23:44:12Z</time>
      </trkpt>
      <trkpt lat="48.35676" lon="2.73156">
        <ele>133</ele>
        <time>2015-12-13T23:46:12Z</time>
      </trkpt>
      <trkpt lat="48.35672" lon="2.73148">
        <ele>134</ele>
        <time>2015-12-13T23:48:12Z</time>
      </trkpt>
      <trkpt lat="48.35666" lon="2.73134">
        <ele>135</ele>
        <time>2015-12-13T23:50:12Z</time>
      </trkpt>
      <trkpt lat="48.35662" lon="2.73122">
        <ele>134</ele>
        <time>2015-12-13T23:52:12Z</time>
      </trkpt>
      <trkpt lat="48.3566" lon="2.73112">
        <ele>134</ele>
        <time>2015-12-13T23:54:12Z</time>
      </trkpt>
      <trkpt lat="48.35659" lon="2.73102">
        <ele>134</ele>
        <time>2015-12-13T23:56:12Z</time>
      </trkpt>
      <trkpt lat="48.35664" lon="2.73099">
        <ele>134</ele>
        <time>2015-12-13T23:58:12Z</time>
      </trkpt>
      <trkpt lat="48.35672" lon="2.73086">
        <ele>133</ele>
        <time>2015-12-14T00:00:12Z</time>
      </trkpt>
      <trkpt lat="48.3568" lon="2.73089">
        <ele>132</ele>
        <time>2015-12-14T00:02:12Z</time>
      </trkpt>
      <trkpt lat="48.35686" lon="2.73091">
        <ele>131</ele>
        <time>2015-12-14T00:04:12Z</time>
      </trkpt>
      <trkpt lat="48.35692" lon="2.73086">
        <ele>129</ele>
        <time>2015-12-14T00:06:12Z</time>
      </trkpt>
      <trkpt lat="48.35699" lon="2.73086">
        <ele>128</ele>
        <time>2015-12-14T00:08:12Z</time>
      </trkpt>
      <trkpt lat="48.35705" lon="2.7309">
        <ele>127</ele>
        <time>2015-12-14T00:10:12Z</time>
      </trkpt>
      <trkpt lat="48.35718" lon="2.73092">
        <ele>125</ele>
        <time>2015-12-14T00:12:12Z</time>
      </trkpt>
      <trkpt lat="48.35728" lon="2.73109">
        <ele>123</ele>
        <time>2015-12-14T00:14:12Z</time>
      </trkpt>
      <trkpt lat="48.35737" lon="2.73141">
        <ele>122</ele>
        <time>2015-12-14T00:16:12Z</time>
      </trkpt>
      <trkpt lat="48.35747" lon="2.73174">
        <ele>121</ele>
        <time>2015-12-14T00:18:12Z</time>
      </trkpt>
      <trkpt lat="48.35753" lon="2.73195">
        <ele>119</ele>
        <time>2015-12-14T00:20:12Z</time>
      </trkpt>
      <trkpt lat="48.35757" lon="2.73207">
        <ele>118</ele>
        <time>2015-12-14T00:22:12Z</time>
      </trkpt>
      <trkpt lat="48.35759" lon="2.73218">
        <ele>118</ele>
        <time>2015-12-14T00:24:12Z</time>
      </trkpt>
      <trkpt lat="48.35768" lon="2.7323">
        <ele>116</ele>
        <time>2015-12-14T00:26:12Z</time>
      </trkpt>
      <trkpt lat="48.35777" lon="2.73227">
        <ele>114</ele>
        <time>2015-12-14T00:28:12Z</time>
      </trkpt>
      <trkpt lat="48.35784" lon="2.73238">
        <ele>113</ele>
        <time>2015-12-14T00:30:12Z</time>
      </trkpt>
      <trkpt lat="48.35788" lon="2.73248">
        <ele>112</ele>
        <time>2015-12-14T00:32:12Z</time>
      </trkpt>
      <trkpt lat="48.35798" lon="2.73252">
        <ele>110</ele>
        <time>2015-12-14T00:34:12Z</time>
      </trkpt>
      <trkpt lat="48.35806" lon="2.73254">
        <ele>108</ele>
        <time>2015-12-14T00:36:12Z</time>
      </trkpt>
      <trkpt lat="48.35814" lon="2.73257">
        <ele>106</ele>
        <time>2015-12-14T00:38:12Z</time>
      </trkpt>
      <trkpt lat="48.35818" lon="2.73264">
        <ele>105</ele>
        <time>2015-12-14T00:40:12Z</time>
      </trkpt>
      <trkpt lat="48.35819" lon="2.73278">
        <ele>105</ele>
        <time>2015-12-14T00:42:12Z</time>
      </trkpt>
      <trkpt lat="48.35824" lon="2.73288">
        <ele>104</ele>
        <time>2015-12-14T00:44:12Z</time>
      </trkpt>
      <trkpt lat="48.35826" lon="2.73307">
        <ele>103</ele>
        <time>2015-12-14T00:46:12Z</time>
      </trkpt>
      <trkpt lat="48.35828" lon="2.73329">
        <ele>103</ele>
        <time>2015-12-14T00:48:12Z</time>
      </trkpt>
      <trkpt lat="48.35829" lon="2.73343">
        <ele>102</ele>
        <time>2015-12-14T00:50:12Z</time>
      </trkpt>
      <trkpt lat="48.3583" lon="2.73358">
        <ele>102</ele>
        <time>2015-12-14T00:52:12Z</time>
      </trkpt>
      <trkpt lat="48.3583" lon="2.73373">
        <ele>102</ele>
        <time>2015-12-14T00:54:12Z</time>
      </trkpt>
      <trkpt lat="48.35827" lon="2.73394">
        <ele>103</ele>
        <time>2015-12-14T00:56:12Z</time>
      </trkpt>
      <trkpt lat="48.35825" lon="2.73404">
        <ele>104</ele>
        <time>2015-12-14T00:58:12Z</time>
      </trkpt>
      <trkpt lat="48.35825" lon="2.73416">
        <ele>104</ele>
        <time>2015-12-14T01:00:12Z</time>
      </trkpt>
      <trkpt lat="48.35817" lon="2.73415">
        <ele>106</ele>
        <time>2015-12-14T01:02:12Z</time>
      </trkpt>
      <trkpt lat="48.35813" lon="2.73426">
        <ele>108</ele>
        <time>2015-12-14T01:04:12Z</time>
      </trkpt>
      <trkpt lat="48.35803" lon="2.7341">
        <ele>111</ele>
        <time>2015-12-14T01:06:12Z</time>
      </trkpt>
      <trkpt lat="48.35799" lon="2.73427">
        <ele>113</ele>
        <time>2015-12-14T01:08:12Z</time>
      </trkpt>
      <trkpt lat="48.35798" lon="2.73445">
        <ele>113</ele>
        <time>2015-12-14T01:10:12Z</time>
      </trkpt>
      <trkpt lat="48.35795" lon="2.73469">
        <ele>114</ele>
        <time>2015-12-14T01:12:12Z</time>
      </trkpt>
      <trkpt lat="48.35792" lon="2.73488">
        <ele>115</ele>
        <time>2015-12-14T01:14:12Z</time>
      </trkpt>
      <trkpt lat="48.35789" lon="2.73505">
        <ele>116</ele>
        <time>2015-12-14T01:16:12Z</time>
      </trkpt>
      <trkpt lat="48.35785" lon="2.73491">
        <ele>118</ele>
        <time>2015-12-14T01:18:12Z</time>
      </trkpt>
      <trkpt lat="48.35784" lon="2.73476">
        <ele>118</ele>
        <time>2015-12-14T01:20:12Z</time>
      </trkpt>
      <trkpt lat="48.35783" lon="2.73465">
        <ele>118</ele>
        <time>2015-12-14T01:22:12Z</time>
      </trkpt>
      <trkpt lat="48.35775" lon="2.73468">
        <ele>121</ele>
        <time>2015-12-14T01:24:12Z</time>
      </trkpt>
      <trkpt lat="48.35769" lon="2.73487">
        <ele>123</ele>
        <time>2015-12-14T01:26:12Z</time>
      </trkpt>
      <trkpt lat="48.35761" lon="2.73521">
        <ele>126</ele>
        <time>2015-12-14T01:28:12Z</time>
      </trkpt>
      <trkpt lat="48.35754" lon="2.73555">
        <ele>128</ele>
        <time>2015-12-14T01:30:12Z</time>
      </trkpt>
      <trkpt lat="48.35749" lon="2.73575">
        <ele>129</ele>
        <time>2015-12-14T01:32:12Z</time>
      </trkpt>
      <trkpt lat="48.35745" lon="2.7359">
        <ele>129</ele>
        <time>2015-12-14T01:34:12Z</time>
      </trkpt>
      <trkpt lat="48.35744" lon="2.73603">
        <ele>129</ele>
        <time>2015-12-14T01:36:12Z</time>
      </trkpt>
      <trkpt lat="48.35746" lon="2.73617">
        <ele>128</ele>
        <time>2015-12-14T01:38:12Z</time>
      </trkpt>
      <trkpt lat="48.35745" lon="2.73631">
        <ele>128</ele>
        <time>2015-12-14T01:40:12Z</time>
      </trkpt>
      <trkpt lat="48.35743" lon="2.73645">
        <ele>128</ele>
        <time>2015-12-14T01:42:12Z</time>
      </trkpt>
      <trkpt lat="48.35739" lon="2.73659">
        <ele>128</ele>
        <time>2015-12-14T01:44:12Z</time>
      </trkpt>
      <trkpt lat="48.35736" lon="2.7368">
        <ele>128</ele>
        <time>2015-12-14T01:46:12Z</time>
      </trkpt>
      <trkpt lat="48.35734" lon="2.73698">
        <ele>128</ele>
        <time>2015-12-14T01:48:12Z</time>
      </trkpt>
      <trkpt lat="48.35734" lon="2.73714">
        <ele>127</ele>
        <time>2015-12-14T01:50:12Z</time>
      </trkpt>
      <trkpt lat="48.35733" lon="2.73726">
        <ele>127</ele>
        <time>2015-12-14T01:52:12Z</time>
      </trkpt>
      <trkpt lat="48.35732" lon="2.73743">
        <ele>127</ele>
        <time>2015-12-14T01:54:12Z</time>
      </trkpt>
      <trkpt lat="48.35728" lon="2.73754">
        <ele>127</ele>
        <time>2015-12-14T01:56:12Z</time>
      </trkpt>
      <trkpt lat="48.35723" lon="2.73764">
        <ele>126</ele>
        <time>2015-12-14T01:58:12Z</time>
      </trkpt>
      <trkpt lat="48.35716" lon="2.73771">
        <ele>127</ele>
        <time>2015-12-14T02:00:12Z</time>
      </trkpt>
      <trkpt lat="48.35707" lon="2.73775">
        <ele>128</ele>
        <time>2015-12-14T02:02:12Z</time>
      </trkpt>
      <trkpt lat="48.35701" lon="2.73783">
        <ele>128</ele>
        <time>2015-12-14T02:04:12Z</time>
      </trkpt>
      <trkpt lat="48.357" lon="2.73792">
        <ele>128</ele>
        <time>2015-12-14T02:06:12Z</time>
      </trkpt>
      <trkpt lat="48.35704" lon="2.738">
        <ele>127</ele>
        <time>2015-12-14T02:08:12Z</time>
      </trkpt>
      <trkpt lat="48.35709" lon="2.73804">
        <ele>125</ele>
        <time>2015-12-14T02:10:12Z</time>
      </trkpt>
      <trkpt lat="48.35706" lon="2.73815">
        <ele>125</ele>
        <time>2015-12-14T02:12:12Z</time>
      </trkpt>
      <trkpt lat="48.35698" lon="2.73829">
        <ele>126</ele>
        <time>2015-12-14T02:14:12Z</time>
      </trkpt>
      <trkpt lat="48.35689" lon="2.73839">
        <ele>128</ele>
        <time>2015-12-14T02:16:12Z</time>
      </trkpt>
      <trkpt lat="48.35675" lon="2.73851">
        <ele>130</ele>
        <time>2015-12-14T02:18:12Z</time>
      </trkpt>
      <trkpt lat="48.35667" lon="2.73857">
        <ele>132</ele>
        <time>2015-12-14T02:20:12Z</time>
      </trkpt>
      <trkpt lat="48.35659" lon="2.73864">
        <ele>132</ele>
        <time>2015-12-14T02:22:12Z</time>
      </trkpt>
      <trkpt lat="48.35666" lon="2.73872">
        <ele>131</ele>
        <time>2015-12-14T02:24:12Z</time>
      </trkpt>
      <trkpt lat="48.35674" lon="2.7388">
        <ele>128</ele>
        <time>2015-12-14T02:26:12Z</time>
      </trkpt>
      <trkpt lat="48.35681" lon="2.73887">
        <ele>126</ele>
        <time>2015-12-14T02:28:12Z</time>
      </trkpt>
      <trkpt lat="48.35689" lon="2.73891">
        <ele>123</ele>
        <time>2015-12-14T02:30:12Z</time>
      </trkpt>
      <trkpt lat="48.35698" lon="2.73893">
        <ele>121</ele>
        <time>2015-12-14T02:32:12Z</time>
      </trkpt>
      <trkpt lat="48.35707" lon="2.73894">
        <ele>118</ele>
        <time>2015-12-14T02:34:12Z</time>
      </trkpt>
      <trkpt lat="48.35713" lon="2.73895">
        <ele>116</ele>
        <time>2015-12-14T02:36:12Z</time>
      </trkpt>
      <trkpt lat="48.35721" lon="2.73898">
        <ele>114</ele>
        <time>2015-12-14T02:38:12Z</time>
      </trkpt>
      <trkpt lat="48.35727" lon="2.73907">
        <ele>111</ele>
        <time>2015-12-14T02:40:12Z</time>
      </trkpt>
      <trkpt lat="48.35738" lon="2.73911">
        <ele>108</ele>
        <time>2015-12-14T02:42:12Z</time>
      </trkpt>
      <trkpt lat="48.35758" lon="2.73916">
        <ele>103</ele>
        <time>2015-12-14T02:44:12Z</time>
      </trkpt>
      <trkpt lat="48.35788" lon="2.73923">
        <ele>99</ele>
        <time>2015-12-14T02:46:12Z</time>
      </trkpt>
      <trkpt lat="48.35804" lon="2.73925">
        <ele>97</ele>
        <time>2015-12-14T02:48:12Z</time>
      </trkpt>
      <trkpt lat="48.3582" lon="2.73932">
        <ele>95</ele>
        <time>2015-12-14T02:50:12Z</time>
      </trkpt>
      <trkpt lat="48.35835" lon="2.73932">
        <ele>93</ele>
        <time>2015-12-14T02:52:12Z</time>
      </trkpt>
      <trkpt lat="48.35845" lon="2.73936">
        <ele>94</ele>
        <time>2015-12-14T02:54:12Z</time>
      </trkpt>
      <trkpt lat="48.35862" lon="2.73945">
        <ele>95</ele>
        <time>2015-12-14T02:56:12Z</time>
      </trkpt>
      <trkpt lat="48.35882" lon="2.73954">
        <ele>96</ele>
        <time>2015-12-14T02:58:12Z</time>
      </trkpt>
      <trkpt lat="48.35898" lon="2.73959">
        <ele>96</ele>
        <time>2015-12-14T03:00:12Z</time>
      </trkpt>
      <trkpt lat="48.35911" lon="2.73961">
        <ele>97</ele>
        <time>2015-12-14T03:02:12Z</time>
      </trkpt>
      <trkpt lat="48.3593" lon="2.73964">
        <ele>98</ele>
        <time>2015-12-14T03:04:12Z</time>
      </trkpt>
      <trkpt lat="48.35939" lon="2.73966">
        <ele>98</ele>
        <time>2015-12-14T03:06:12Z</time>
      </trkpt>
      <trkpt lat="48.35955" lon="2.73975">
        <ele>99</ele>
        <time>2015-12-14T03:08:12Z</time>
      </trkpt>
      <trkpt lat="48.35971" lon="2.73975">
        <ele>100</ele>
        <time>2015-12-14T03:10:12Z</time>
      </trkpt>
      <trkpt lat="48.35978" lon="2.73979">
        <ele>100</ele>
        <time>2015-12-14T03:12:12Z</time>
      </trkpt>
      <trkpt lat="48.35984" lon="2.7399">
        <ele>101</ele>
        <time>2015-12-14T03:14:12Z</time>
      </trkpt>
      <trkpt lat="48.36024" lon="2.74021">
        <ele>105</ele>
        <time>2015-12-14T03:16:12Z</time>
      </trkpt>
      <trkpt lat="48.36038" lon="2.74034">
        <ele>106</ele>
        <time>2015-12-14T03:18:12Z</time>
      </trkpt>
      <trkpt lat="48.36063" lon="2.74059">
        <ele>107</ele>
        <time>2015-12-14T03:20:12Z</time>
      </trkpt>
      <trkpt lat="48.36066" lon="2.74076">
        <ele>109</ele>
        <time>2015-12-14T03:22:12Z</time>
      </trkpt>
      <trkpt lat="48.36073" lon="2.74087">
        <ele>109</ele>
        <time>2015-12-14T03:24:12Z</time>
      </trkpt>
      <trkpt lat="48.36079" lon="2.74113">
        <ele>111</ele>
        <time>2015-12-14T03:26:12Z</time>
      </trkpt>
      <trkpt lat="48.36076" lon="2.74148">
        <ele>114</ele>
        <time>2015-12-14T03:28:12Z</time>
      </trkpt>
      <trkpt lat="48.36073" lon="2.74156">
        <ele>115</ele>
        <time>2015-12-14T03:30:12Z</time>
      </trkpt>
      <trkpt lat="48.36065" lon="2.74162">
        <ele>117</ele>
        <time>2015-12-14T03:32:12Z</time>
      </trkpt>
      <trkpt lat="48.36057" lon="2.74161">
        <ele>118</ele>
        <time>2015-12-14T03:34:12Z</time>
      </trkpt>
      <trkpt lat="48.3605" lon="2.74152">
        <ele>118</ele>
        <time>2015-12-14T03:36:12Z</time>
      </trkpt>
      <trkpt lat="48.36046" lon="2.74142">
        <ele>117</ele>
        <time>2015-12-14T03:38:12Z</time>
      </trkpt>
      <trkpt lat="48.36031" lon="2.74139">
        <ele>118</ele>
        <time>2015-12-14T03:40:12Z</time>
      </trkpt>
      <trkpt lat="48.36024" lon="2.74138">
        <ele>119</ele>
        <time>2015-12-14T03:42:12Z</time>
      </trkpt>
      <trkpt lat="48.36019" lon="2.74131">
        <ele>119</ele>
        <time>2015-12-14T03:44:12Z</time>
      </trkpt>
      <trkpt lat="48.36" lon="2.74141">
        <ele>122</ele>
        <time>2015-12-14T03:46:12Z</time>
      </trkpt>
      <trkpt lat="48.35984" lon="2.74157">
        <ele>122</ele>
        <time>2015-12-14T03:48:12Z</time>
      </trkpt>
      <trkpt lat="48.35973" lon="2.74168">
        <ele>121</ele>
        <time>2015-12-14T03:50:12Z</time>
      </trkpt>
      <trkpt lat="48.35967" lon="2.74178">
        <ele>121</ele>
        <time>2015-12-14T03:52:12Z</time>
      </trkpt>
      <trkpt lat="48.35959" lon="2.74195">
        <ele>121</ele>
        <time>2015-12-14T03:54:12Z</time>
      </trkpt>
      <trkpt lat="48.35954" lon="2.74207">
        <ele>120</ele>
        <time>2015-12-14T03:56:12Z</time>
      </trkpt>
      <trkpt lat="48.35955" lon="2.74219">
        <ele>121</ele>
        <time>2015-12-14T03:58:12Z</time>
      </trkpt>
      <trkpt lat="48.35959" lon="2.74227">
        <ele>122</ele>
        <time>2015-12-14T04:00:12Z</time>
      </trkpt>
      <trkpt lat="48.35965" lon="2.7423">
        <ele>124</ele>
        <time>2015-12-14T04:02:12Z</time>
      </trkpt>
      <trkpt lat="48.35976" lon="2.74211">
        <ele>125</ele>
        <time>2015-12-14T04:04:12Z</time>
      </trkpt>
      <trkpt lat="48.35981" lon="2.74203">
        <ele>125</ele>
        <time>2015-12-14T04:06:12Z</time>
      </trkpt>
      <trkpt lat="48.35989" lon="2.74194">
        <ele>125</ele>
        <time>2015-12-14T04:08:12Z</time>
      </trkpt>
      <trkpt lat="48.35997" lon="2.7419">
        <ele>126</ele>
        <time>2015-12-14T04:10:12Z</time>
      </trkpt>
      <trkpt lat="48.36006" lon="2.74187">
        <ele>126</ele>
        <time>2015-12-14T04:12:12Z</time>
      </trkpt>
      <trkpt lat="48.36012" lon="2.74189">
        <ele>126</ele>
        <time>2015-12-14T04:14:12Z</time>
      </trkpt>
      <trkpt lat="48.36014" lon="2.74197">
        <ele>126</ele>
        <time>2015-12-14T04:16:12Z</time>
      </trkpt>
      <trkpt lat="48.36009" lon="2.74208">
        <ele>128</ele>
        <time>2015-12-14T04:18:12Z</time>
      </trkpt>
      <trkpt lat="48.36019" lon="2.74238">
        <ele>129</ele>
        <time>2015-12-14T04:20:12Z</time>
      </trkpt>
      <trkpt lat="48.36021" lon="2.7425">
        <ele>130</ele>
        <time>2015-12-14T04:22:12Z</time>
      </trkpt>
      <trkpt lat="48.36026" lon="2.74289">
        <ele>131</ele>
        <time>2015-12-14T04:24:12Z</time>
      </trkpt>
      <trkpt lat="48.3603" lon="2.74307">
        <ele>131</ele>
        <time>2015-12-14T04:26:12Z</time>
      </trkpt>
      <trkpt lat="48.36036" lon="2.74359">
        <ele>132</ele>
        <time>2015-12-14T04:28:12Z</time>
      </trkpt>
      <trkpt lat="48.36031" lon="2.74381">
        <ele>133</ele>
        <time>2015-12-14T04:30:12Z</time>
      </trkpt>
      <trkpt lat="48.36029" lon="2.74399">
        <ele>133</ele>
        <time>2015-12-14T04:32:12Z</time>
      </trkpt>
      <trkpt lat="48.36025" lon="2.74423">
        <ele>133</ele>
        <time>2015-12-14T04:34:12Z</time>
      </trkpt>
      <trkpt lat="48.36022" lon="2.7446">
        <ele>133</ele>
        <time>2015-12-14T04:36:12Z</time>
      </trkpt>
      <trkpt lat="48.36019" lon="2.74478">
        <ele>133</ele>
        <time>2015-12-14T04:38:12Z</time>
      </trkpt>
      <trkpt lat="48.36011" lon="2.74529">
        <ele>133</ele>
        <time>2015-12-14T04:40:12Z</time>
      </trkpt>
      <trkpt lat="48.36008" lon="2.7455">
        <ele>133</ele>
        <time>2015-12-14T04:42:12Z</time>
      </trkpt>
      <trkpt lat="48.36007" lon="2.74564">
        <ele>133</ele>
        <time>2015-12-14T04:44:12Z</time>
      </trkpt>
      <trkpt lat="48.36005" lon="2.74586">
        <ele>133</ele>
        <time>2015-12-14T04:46:12Z</time>
      </trkpt>
      <trkpt lat="48.36006" lon="2.74614">
        <ele>133</ele>
        <time>2015-12-14T04:48:12Z</time>
      </trkpt>
      <trkpt lat="48.3601" lon="2.74627">
        <ele>133</ele>
        <time>2015-12-14T04:50:12Z</time>
      </trkpt>
      <trkpt lat="48.36018" lon="2.74646">
        <ele>133</ele>
        <time>2015-12-14T04:52:12Z</time>
      </trkpt>
      <trkpt lat="48.36034" lon="2.74687">
        <ele>133</ele>
        <time>2015-12-14T04:54:12Z</time>
      </trkpt>
      <trkpt lat="48.36052" lon="2.74737">
        <ele>132</ele>
        <time>2015-12-14T04:56:12Z</time>
      </trkpt>
      <trkpt lat="48.36098" lon="2.74831">
        <ele>132</ele>
        <time>2015-12-14T04:58:12Z</time>
      </trkpt>
      <trkpt lat="48.36101" lon="2.74853">
        <ele>131</ele>
        <time>2015-12-14T05:00:12Z</time>
      </trkpt>
      <trkpt lat="48.36104" lon="2.74885">
        <ele>130</ele>
        <time>2015-12-14T05:02:12Z</time>
      </trkpt>
      <trkpt lat="48.36108" lon="2.74912">
        <ele>129</ele>
        <time>2015-12-14T05:04:12Z</time>
      </trkpt>
      <trkpt lat="48.36112" lon="2.74936">
        <ele>129</ele>
        <time>2015-12-14T05:06:12Z</time>
      </trkpt>
      <trkpt lat="48.36115" lon="2.74967">
        <ele>128</ele>
        <time>2015-12-14T05:08:12Z</time>
      </trkpt>
      <trkpt lat="48.36117" lon="2.7498">
        <ele>128</ele>
        <time>2015-12-14T05:10:12Z</time>
      </trkpt>
      <trkpt lat="48.36121" lon="2.74999">
        <ele>128</ele>
        <time>2015-12-14T05:12:12Z</time>
      </trkpt>
      <trkpt lat="48.36123" lon="2.75012">
        <ele>128</ele>
        <time>2015-12-14T05:14:12Z</time>
      </trkpt>
      <trkpt lat="48.36125" lon="2.75023">
        <ele>128</ele>
        <time>2015-12-14T05:16:12Z</time>
      </trkpt>
      <trkpt lat="48.36123" lon="2.75048">
        <ele>127</ele>
        <time>2015-12-14T05:18:12Z</time>
      </trkpt>
      <trkpt lat="48.36118" lon="2.75089">
        <ele>125</ele>
        <time>2015-12-14T05:20:12Z</time>
      </trkpt>
      <trkpt lat="48.36116" lon="2.75111">
        <ele>126</ele>
        <time>2015-12-14T05:22:12Z</time>
      </trkpt>
      <trkpt lat="48.36115" lon="2.75127">
        <ele>126</ele>
        <time>2015-12-14T05:24:12Z</time>
      </trkpt>
      <trkpt lat="48.36112" lon="2.75136">
        <ele>127</ele>
        <time>2015-12-14T05:26:12Z</time>
      </trkpt>
      <trkpt lat="48.3611" lon="2.75163">
        <ele>128</ele>
        <time>2015-12-14T05:28:12Z</time>
      </trkpt>
      <trkpt lat="48.36106" lon="2.75201">
        <ele>127</ele>
        <time>2015-12-14T05:30:12Z</time>
      </trkpt>
      <trkpt lat="48.36094" lon="2.75196">
        <ele>128</ele>
        <time>2015-12-14T05:32:12Z</time>
      </trkpt>
      <trkpt lat="48.36086" lon="2.75191">
        <ele>128</ele>
        <time>2015-12-14T05:34:12Z</time>
      </trkpt>
      <trkpt lat="48.36075" lon="2.75189">
        <ele>127</ele>
        <time>2015-12-14T05:36:12Z</time>
      </trkpt>
      <trkpt lat="48.36069" lon="2.75194">
        <ele>125</ele>
        <time>2015-12-14T05:38:12Z</time>
      </trkpt>
      <trkpt lat="48.36062" lon="2.752">
        <ele>123</ele>
        <time>2015-12-14T05:40:12Z</time>
      </trkpt>
      <trkpt lat="48.36058" lon="2.75211">
        <ele>123</ele>
        <time>2015-12-14T05:42:12Z</time>
      </trkpt>
      <trkpt lat="48.36055" lon="2.75227">
        <ele>122</ele>
        <time>2015-12-14T05:44:12Z</time>
      </trkpt>
      <trkpt lat="48.36055" lon="2.75237">
        <ele>122</ele>
        <time>2015-12-14T05:46:12Z</time>
      </trkpt>
      <trkpt lat="48.36057" lon="2.75252">
        <ele>122</ele>
        <time>2015-12-14T05:48:12Z</time>
      </trkpt>
      <trkpt lat="48.36065" lon="2.75258">
        <ele>123</ele>
        <time>2015-12-14T05:50:12Z</time>
      </trkpt>
      <trkpt lat="48.36071" lon="2.75264">
        <ele>124</ele>
        <time>2015-12-14T05:52:12Z</time>
      </trkpt>
      <trkpt lat="48.36079" lon="2.7526">
        <ele>125</ele>
        <time>2015-12-14T05:54:12Z</time>
      </trkpt>
      <trkpt lat="48.36086" lon="2.75264">
        <ele>126</ele>
        <time>2015-12-14T05:56:12Z</time>
      </trkpt>
      <trkpt lat="48.36091" lon="2.75267">
        <ele>125</ele>
        <time>2015-12-14T05:58:12Z</time>
      </trkpt>
      <trkpt lat="48.36096" lon="2.75273">
        <ele>124</ele>
        <time>2015-12-14T06:00:12Z</time>
      </trkpt>
      <trkpt lat="48.36103" lon="2.75274">
        <ele>123</ele>
        <time>2015-12-14T06:02:12Z</time>
      </trkpt>
      <trkpt lat="48.36105" lon="2.75285">
        <ele>122</ele>
        <time>2015-12-14T06:04:12Z</time>
      </trkpt>
      <trkpt lat="48.36109" lon="2.75293">
        <ele>121</ele>
        <time>2015-12-14T06:06:12Z</time>
      </trkpt>
      <trkpt lat="48.36106" lon="2.75318">
        <ele>119</ele>
        <time>2015-12-14T06:08:12Z</time>
      </trkpt>
      <trkpt lat="48.36102" lon="2.75339">
        <ele>118</ele>
        <time>2015-12-14T06:10:12Z</time>
      </trkpt>
      <trkpt lat="48.361" lon="2.75351">
        <ele>118</ele>
        <time>2015-12-14T06:12:12Z</time>
      </trkpt>
      <trkpt lat="48.36098" lon="2.75368">
        <ele>117</ele>
        <time>2015-12-14T06:14:12Z</time>
      </trkpt>
      <trkpt lat="48.36097" lon="2.7538">
        <ele>117</ele>
        <time>2015-12-14T06:16:12Z</time>
      </trkpt>
      <trkpt lat="48.36097" lon="2.75398">
        <ele>116</ele>
        <time>2015-12-14T06:18:12Z</time>
      </trkpt>
      <trkpt lat="48.36102" lon="2.7542">
        <ele>115</ele>
        <time>2015-12-14T06:20:12Z</time>
      </trkpt>
      <trkpt lat="48.36111" lon="2.7543">
        <ele>114</ele>
        <time>2015-12-14T06:22:12Z</time>
      </trkpt>
      <trkpt lat="48.3612" lon="2.75449">
        <ele>113</ele>
        <time>2015-12-14T06:24:12Z</time>
      </trkpt>
      <trkpt lat="48.36196" lon="2.75587">
        <ele>103</ele>
        <time>2015-12-14T06:26:12Z</time>
      </trkpt>
      <trkpt lat="48.36179" lon="2.75605">
        <ele>102</ele>
        <time>2015-12-14T06:28:12Z</time>
      </trkpt>
      <trkpt lat="48.36163" lon="2.75619">
        <ele>102</ele>
        <time>2015-12-14T06:30:12Z</time>
      </trkpt>
      <trkpt lat="48.3615" lon="2.75634">
        <ele>101</ele>
        <time>2015-12-14T06:32:12Z</time>
      </trkpt>
      <trkpt lat="48.3614" lon="2.75641">
        <ele>101</ele>
        <time>2015-12-14T06:34:12Z</time>
      </trkpt>
      <trkpt lat="48.36127" lon="2.75652">
        <ele>100</ele>
        <time>2015-12-14T06:36:12Z</time>
      </trkpt>
      <trkpt lat="48.36108" lon="2.75668">
        <ele>98</ele>
        <time>2015-12-14T06:38:12Z</time>
      </trkpt>
      <trkpt lat="48.36085" lon="2.75688">
        <ele>97</ele>
        <time>2015-12-14T06:40:12Z</time>
      </trkpt>
      <trkpt lat="48.36075" lon="2.75701">
        <ele>98</ele>
        <time>2015-12-14T06:42:12Z</time>
      </trkpt>
      <trkpt lat="48.36067" lon="2.75712">
        <ele>98</ele>
        <time>2015-12-14T06:44:12Z</time>
      </trkpt>
      <trkpt lat="48.36051" lon="2.75725">
        <ele>98</ele>
        <time>2015-12-14T06:46:12Z</time>
      </trkpt>
      <trkpt lat="48.36025" lon="2.75749">
        <ele>99</ele>
        <time>2015-12-14T06:48:12Z</time>
      </trkpt>
      <trkpt lat="48.36011" lon="2.75765">
        <ele>99</ele>
        <time>2015-12-14T06:50:12Z</time>
      </trkpt>
      <trkpt lat="48.36001" lon="2.75774">
        <ele>99</ele>
        <time>2015-12-14T06:52:12Z</time>
      </trkpt>
      <trkpt lat="48.35991" lon="2.75784">
        <ele>99</ele>
        <time>2015-12-14T06:54:12Z</time>
      </trkpt>
      <trkpt lat="48.3598" lon="2.75791">
        <ele>99</ele>
        <time>2015-12-14T06:56:12Z</time>
      </trkpt>
      <trkpt lat="48.35968" lon="2.75805">
        <ele>99</ele>
        <time>2015-12-14T06:58:12Z</time>
      </trkpt>
      <trkpt lat="48.35953" lon="2.75818">
        <ele>99</ele>
        <time>2015-12-14T07:00:12Z</time>
      </trkpt>
      <trkpt lat="48.35947" lon="2.75824">
        <ele>99</ele>
        <time>2015-12-14T07:02:12Z</time>
      </trkpt>
      <trkpt lat="48.35934" lon="2.75837">
        <ele>99</ele>
        <time>2015-12-14T07:04:12Z</time>
      </trkpt>
      <trkpt lat="48.35928" lon="2.75847">
        <ele>99</ele>
        <time>2015-12-14T07:06:12Z</time>
      </trkpt>
      <trkpt lat="48.35895" lon="2.75875">
        <ele>98</ele>
        <time>2015-12-14T07:08:12Z</time>
      </trkpt>
      <trkpt lat="48.35877" lon="2.75891">
        <ele>97</ele>
        <time>2015-12-14T07:10:12Z</time>
      </trkpt>
      <trkpt lat="48.35862" lon="2.75901">
        <ele>97</ele>
        <time>2015-12-14T07:12:12Z</time>
      </trkpt>
      <trkpt lat="48.35846" lon="2.7592">
        <ele>96</ele>
        <time>2015-12-14T07:14:12Z</time>
      </trkpt>
      <trkpt lat="48.35829" lon="2.75936">
        <ele>96</ele>
        <time>2015-12-14T07:16:12Z</time>
      </trkpt>
      <trkpt lat="48.35815" lon="2.75951">
        <ele>96</ele>
        <time>2015-12-14T07:18:12Z</time>
      </trkpt>
      <trkpt lat="48.35803" lon="2.75964">
        <ele>96</ele>
        <time>2015-12-14T07:20:12Z</time>
      </trkpt>
      <trkpt lat="48.3579" lon="2.75973">
        <ele>95</ele>
        <time>2015-12-14T07:22:12Z</time>
      </trkpt>
      <trkpt lat="48.35779" lon="2.75981">
        <ele>95</ele>
        <time>2015-12-14T07:24:12Z</time>
      </trkpt>
      <trkpt lat="48.35768" lon="2.75995">
        <ele>95</ele>
        <time>2015-12-14T07:26:12Z</time>
      </trkpt>
      <trkpt lat="48.35755" lon="2.76001">
        <ele>95</ele>
        <time>2015-12-14T07:28:12Z</time>
      </trkpt>
      <trkpt lat="48.35742" lon="2.76007">
        <ele>95</ele>
        <time>2015-12-14T07:30:12Z</time>
      </trkpt>
      <trkpt lat="48.35727" lon="2.76028">
        <ele>95</ele>
        <time>2015-12-14T07:32:12Z</time>
      </trkpt>
      <trkpt lat="48.3571" lon="2.76041">
        <ele>95</ele>
        <time>2015-12-14T07:34:12Z</time>
      </trkpt>
      <trkpt lat="48.35693" lon="2.76053">
        <ele>94</ele>
        <time>2015-12-14T07:36:12Z</time>
      </trkpt>
      <trkpt lat="48.35678" lon="2.76068">
        <ele>94</ele>
        <time>2015-12-14T07:38:12Z</time>
      </trkpt>
      <trkpt lat="48.3566" lon="2.76083">
        <ele>94</ele>
        <time>2015-12-14T07:40:12Z</time>
      </trkpt>
      <trkpt lat="48.35647" lon="2.76098">
        <ele>94</ele>
        <time>2015-12-14T07:42:12Z</time>
      </trkpt>
      <trkpt lat="48.35638" lon="2.76111">
        <ele>95</ele>
        <time>2015-12-14T07:44:12Z</time>
      </trkpt>
      <trkpt lat="48.3563" lon="2.7612">
        <ele>95</ele>
        <time>2015-12-14T07:46:12Z</time>
      </trkpt>
      <trkpt lat="48.35608" lon="2.76141">
        <ele>95</ele>
        <time>2015-12-14T07:48:12Z</time>
      </trkpt>
      <trkpt lat="48.35599" lon="2.76142">
        <ele>95</ele>
        <time>2015-12-14T07:50:12Z</time>
      </trkpt>
      <trkpt lat="48.35601" lon="2.76116">
        <ele>96</ele>
        <time>2015-12-14T07:52:12Z</time>
      </trkpt>
      <trkpt lat="48.35604" lon="2.76077">
        <ele>96</ele>
        <time>2015-12-14T07:54:12Z</time>
      </trkpt>
      <trkpt lat="48.35609" lon="2.76031">
        <ele>96</ele>
        <time>2015-12-14T07:56:12Z</time>
      </trkpt>
      <trkpt lat="48.35614" lon="2.7596">
        <ele>96</ele>
        <time>2015-12-14T07:58:12Z</time>
      </trkpt>
      <trkpt lat="48.35619" lon="2.75911">
        <ele>95</ele>
        <time>2015-12-14T08:00:12Z</time>
      </trkpt>
      <trkpt lat="48.35624" lon="2.75884">
        <ele>95</ele>
        <time>2015-12-14T08:02:12Z</time>
      </trkpt>
      <trkpt lat="48.35594" lon="2.75857">
        <ele>97</ele>
        <time>2015-12-14T08:04:12Z</time>
      </trkpt>
      <trkpt lat="48.35561" lon="2.75831">
        <ele>99</ele>
        <time>2015-12-14T08:06:12Z</time>
      </trkpt>
      <trkpt lat="48.35537" lon="2.75811">
        <ele>101</ele>
        <time>2015-12-14T08:08:12Z</time>
      </trkpt>
      <trkpt lat="48.35523" lon="2.75795">
        <ele>102</ele>
        <time>2015-12-14T08:10:12Z</time>
      </trkpt>
      <trkpt lat="48.35509" lon="2.7579">
        <ele>104</ele>
        <time>2015-12-14T08:12:12Z</time>
      </trkpt>
      <trkpt lat="48.35494" lon="2.75781">
        <ele>106</ele>
        <time>2015-12-14T08:14:12Z</time>
      </trkpt>
      <trkpt lat="48.35477" lon="2.75772">
        <ele>109</ele>
        <time>2015-12-14T08:16:12Z</time>
      </trkpt>
      <trkpt lat="48.35463" lon="2.75764">
        <ele>112</ele>
        <time>2015-12-14T08:18:12Z</time>
      </trkpt>
      <trkpt lat="48.35447" lon="2.75745">
        <ele>115</ele>
        <time>2015-12-14T08:20:12Z</time>
      </trkpt>
      <trkpt lat="48.35443" lon="2.75735">
        <ele>116</ele>
        <time>2015-12-14T08:22:12Z</time>
      </trkpt>
      <trkpt lat="48.3544" lon="2.75727">
        <ele>117</ele>
        <time>2015-12-14T08:24:12Z</time>
      </trkpt>
      <trkpt lat="48.35439" lon="2.75688">
        <ele>119</ele>
        <time>2015-12-14T08:26:12Z</time>
      </trkpt>
      <trkpt lat="48.35436" lon="2.75677">
        <ele>120</ele>
        <time>2015-12-14T08:28:12Z</time>
      </trkpt>
      <trkpt lat="48.35431" lon="2.75666">
        <ele>121</ele>
        <time>2015-12-14T08:30:12Z</time>
      </trkpt>
      <trkpt lat="48.35423" lon="2.75655">
        <ele>123</ele>
        <time>2015-12-14T08:32:12Z</time>
      </trkpt>
      <trkpt lat="48.35411" lon="2.75644">
        <ele>125</ele>
        <time>2015-12-14T08:34:12Z</time>
      </trkpt>
      <trkpt lat="48.354" lon="2.75645">
        <ele>125</ele>
        <time>2015-12-14T08:36:12Z</time>
      </trkpt>
      <trkpt lat="48.35391" lon="2.75644">
        <ele>125</ele>
        <time>2015-12-14T08:38:12Z</time>
      </trkpt>
      <trkpt lat="48.35382" lon="2.7564">
        <ele>126</ele>
        <time>2015-12-14T08:40:12Z</time>
      </trkpt>
      <trkpt lat="48.35377" lon="2.75635">
        <ele>126</ele>
        <time>2015-12-14T08:42:12Z</time>
      </trkpt>
      <trkpt lat="48.35374" lon="2.75625">
        <ele>127</ele>
        <time>2015-12-14T08:44:12Z</time>
      </trkpt>
      <trkpt lat="48.35372" lon="2.75607">
        <ele>127</ele>
        <time>2015-12-14T08:46:12Z</time>
      </trkpt>
      <trkpt lat="48.35372" lon="2.75595">
        <ele>127</ele>
        <time>2015-12-14T08:48:12Z</time>
      </trkpt>
      <trkpt lat="48.35369" lon="2.75581">
        <ele>127</ele>
        <time>2015-12-14T08:50:12Z</time>
      </trkpt>
      <trkpt lat="48.35359" lon="2.75569">
        <ele>127</ele>
        <time>2015-12-14T08:52:12Z</time>
      </trkpt>
      <trkpt lat="48.35352" lon="2.75559">
        <ele>126</ele>
        <time>2015-12-14T08:54:12Z</time>
      </trkpt>
      <trkpt lat="48.35341" lon="2.75548">
        <ele>125</ele>
        <time>2015-12-14T08:56:12Z</time>
      </trkpt>
      <trkpt lat="48.35337" lon="2.75535">
        <ele>124</ele>
        <time>2015-12-14T08:58:12Z</time>
      </trkpt>
      <trkpt lat="48.35335" lon="2.7552">
        <ele>123</ele>
        <time>2015-12-14T09:00:12Z</time>
      </trkpt>
      <trkpt lat="48.35333" lon="2.75508">
        <ele>122</ele>
        <time>2015-12-14T09:02:12Z</time>
      </trkpt>
      <trkpt lat="48.3532" lon="2.75506">
        <ele>122</ele>
        <time>2015-12-14T09:04:12Z</time>
      </trkpt>
      <trkpt lat="48.35309" lon="2.75508">
        <ele>122</ele>
        <time>2015-12-14T09:06:12Z</time>
      </trkpt>
      <trkpt lat="48.35301" lon="2.7551">
        <ele>122</ele>
        <time>2015-12-14T09:08:12Z</time>
      </trkpt>
      <trkpt lat="48.35292" lon="2.75517">
        <ele>122</ele>
        <time>2015-12-14T09:10:12Z</time>
      </trkpt>
      <trkpt lat="48.35284" lon="2.75523">
        <ele>123</ele>
        <time>2015-12-14T09:12:12Z</time>
      </trkpt>
      <trkpt lat="48.35278" lon="2.75531">
        <ele>123</ele>
        <time>2015-12-14T09:14:12Z</time>
      </trkpt>
      <trkpt lat="48.35275" lon="2.75538">
        <ele>123</ele>
        <time>2015-12-14T09:16:12Z</time>
      </trkpt>
      <trkpt lat="48.35264" lon="2.75565">
        <ele>124</ele>
        <time>2015-12-14T09:18:12Z</time>
      </trkpt>
      <trkpt lat="48.3527" lon="2.7553">
        <ele>123</ele>
        <time>2015-12-14T09:20:12Z</time>
      </trkpt>
      <trkpt lat="48.3528" lon="2.75476">
        <ele>121</ele>
        <time>2015-12-14T09:22:12Z</time>
      </trkpt>
      <trkpt lat="48.35286" lon="2.75443">
        <ele>120</ele>
        <time>2015-12-14T09:24:12Z</time>
      </trkpt>
      <trkpt lat="48.35299" lon="2.75378">
        <ele>117</ele>
        <time>2015-12-14T09:26:12Z</time>
      </trkpt>
      <trkpt lat="48.35313" lon="2.75325">
        <ele>114</ele>
        <time>2015-12-14T09:28:12Z</time>
      </trkpt>
      <trkpt lat="48.35335" lon="2.75254">
        <ele>112</ele>
        <time>2015-12-14T09:30:12Z</time>
      </trkpt>
      <trkpt lat="48.3535" lon="2.75206">
        <ele>114</ele>
        <time>2015-12-14T09:32:12Z</time>
      </trkpt>
      <trkpt lat="48.35364" lon="2.75153">
        <ele>115</ele>
        <time>2015-12-14T09:34:12Z</time>
      </trkpt>
      <trkpt lat="48.35373" lon="2.75123">
        <ele>116</ele>
        <time>2015-12-14T09:36:12Z</time>
      </trkpt>
      <trkpt lat="48.35383" lon="2.75092">
        <ele>117</ele>
        <time>2015-12-14T09:38:12Z</time>
      </trkpt>
      <trkpt lat="48.35393" lon="2.75074">
        <ele>117</ele>
        <time>2015-12-14T09:40:12Z</time>
      </trkpt>
      <trkpt lat="48.35402" lon="2.75048">
        <ele>118</ele>
        <time>2015-12-14T09:42:12Z</time>
      </trkpt>
      <trkpt lat="48.35397" lon="2.75039">
        <ele>118</ele>
        <time>2015-12-14T09:44:12Z</time>
      </trkpt>
      <trkpt lat="48.35393" lon="2.7503">
        <ele>118</ele>
        <time>2015-12-14T09:46:12Z</time>
      </trkpt>
      <trkpt lat="48.35389" lon="2.75013">
        <ele>119</ele>
        <time>2015-12-14T09:48:12Z</time>
      </trkpt>
      <trkpt lat="48.35387" lon="2.75001">
        <ele>119</ele>
        <time>2015-12-14T09:50:12Z</time>
      </trkpt>
      <trkpt lat="48.35386" lon="2.7499">
        <ele>120</ele>
        <time>2015-12-14T09:52:12Z</time>
      </trkpt>
      <trkpt lat="48.35383" lon="2.74979">
        <ele>121</ele>
        <time>2015-12-14T09:54:12Z</time>
      </trkpt>
      <trkpt lat="48.35385" lon="2.74958">
        <ele>122</ele>
        <time>2015-12-14T09:56:12Z</time>
      </trkpt>
      <trkpt lat="48.35383" lon="2.74937">
        <ele>123</ele>
        <time>2015-12-14T09:58:12Z</time>
      </trkpt>
      <trkpt lat="48.35378" lon="2.74917">
        <ele>125</ele>
        <time>2015-12-14T10:00:12Z</time>
      </trkpt>
      <trkpt lat="48.35373" lon="2.74903">
        <ele>126</ele>
        <time>2015-12-14T10:02:12Z</time>
      </trkpt>
      <trkpt lat="48.35369" lon="2.74874">
        <ele>128</ele>
        <time>2015-12-14T10:04:12Z</time>
      </trkpt>
      <trkpt lat="48.35366" lon="2.74846">
        <ele>130</ele>
        <time>2015-12-14T10:06:12Z</time>
      </trkpt>
      <trkpt lat="48.35366" lon="2.74833">
        <ele>131</ele>
        <time>2015-12-14T10:08:12Z</time>
      </trkpt>
      <trkpt lat="48.35365" lon="2.74818">
        <ele>131</ele>
        <time>2015-12-14T10:10:12Z</time>
      </trkpt>
      <trkpt lat="48.35362" lon="2.74801">
        <ele>131</ele>
        <time>2015-12-14T10:12:12Z</time>
      </trkpt>
      <trkpt lat="48.3536" lon="2.74786">
        <ele>131</ele>
        <time>2015-12-14T10:14:12Z</time>
      </trkpt>
      <trkpt lat="48.35359" lon="2.74774">
        <ele>132</ele>
        <time>2015-12-14T10:16:12Z</time>
      </trkpt>
      <trkpt lat="48.35359" lon="2.74751">
        <ele>132</ele>
        <time>2015-12-14T10:18:12Z</time>
      </trkpt>
      <trkpt lat="48.35362" lon="2.74739">
        <ele>132</ele>
        <time>2015-12-14T10:20:12Z</time>
      </trkpt>
      <trkpt lat="48.35364" lon="2.74719">
        <ele>131</ele>
        <time>2015-12-14T10:22:12Z</time>
      </trkpt>
      <trkpt lat="48.35366" lon="2.74708">
        <ele>131</ele>
        <time>2015-12-14T10:24:12Z</time>
      </trkpt>
      <trkpt lat="48.35366" lon="2.74682">
        <ele>130</ele>
        <time>2015-12-14T10:26:12Z</time>
      </trkpt>
      <trkpt lat="48.35368" lon="2.74655">
        <ele>130</ele>
        <time>2015-12-14T10:28:12Z</time>
      </trkpt>
      <trkpt lat="48.35368" lon="2.74638">
        <ele>130</ele>
        <time>2015-12-14T10:30:12Z</time>
      </trkpt>
      <trkpt lat="48.35367" lon="2.74628">
        <ele>130</ele>
        <time>2015-12-14T10:32:12Z</time>
      </trkpt>
      <trkpt lat="48.35367" lon="2.74616">
        <ele>130</ele>
        <time>2015-12-14T10:34:12Z</time>
      </trkpt>
      <trkpt lat="48.35368" lon="2.74602">
        <ele>130</ele>
        <time>2015-12-14T10:36:12Z</time>
      </trkpt>
      <trkpt lat="48.35372" lon="2.74575">
        <ele>130</ele>
        <time>2015-12-14T10:38:12Z</time>
      </trkpt>
      <trkpt lat="48.35372" lon="2.74563">
        <ele>130</ele>
        <time>2015-12-14T10:40:12Z</time>
      </trkpt>
      <trkpt lat="48.35372" lon="2.74549">
        <ele>130</ele>
        <time>2015-12-14T10:42:12Z</time>
      </trkpt>
      <trkpt lat="48.35371" lon="2.74497">
        <ele>129</ele>
        <time>2015-12-14T10:44:12Z</time>
      </trkpt>
      <trkpt lat="48.35371" lon="2.74452">
        <ele>129</ele>
        <time>2015-12-14T10:46:12Z</time>
      </trkpt>
      <trkpt lat="48.35371" lon="2.74418">
        <ele>129</ele>
        <time>2015-12-14T10:48:12Z</time>
      </trkpt>
      <trkpt lat="48.35371" lon="2.74365">
        <ele>130</ele>
        <time>2015-12-14T10:50:12Z</time>
      </trkpt>
      <trkpt lat="48.35372" lon="2.7435">
        <ele>130</ele>
        <time>2015-12-14T10:52:12Z</time>
      </trkpt>
      <trkpt lat="48.35376" lon="2.7434">
        <ele>130</ele>
        <time>2015-12-14T10:54:12Z</time>
      </trkpt>
      <trkpt lat="48.35381" lon="2.7433">
        <ele>130</ele>
        <time>2015-12-14T10:56:12Z</time>
      </trkpt>
      <trkpt lat="48.3539" lon="2.74307">
        <ele>131</ele>
        <time>2015-12-14T10:58:12Z</time>
      </trkpt>
      <trkpt lat="48.35393" lon="2.74292">
        <ele>131</ele>
        <time>2015-12-14T11:00:12Z</time>
      </trkpt>
      <trkpt lat="48.35394" lon="2.74284">
        <ele>131</ele>
        <time>2015-12-14T11:02:12Z</time>
      </trkpt>
      <trkpt lat="48.35394" lon="2.7427">
        <ele>131</ele>
        <time>2015-12-14T11:04:12Z</time>
      </trkpt>
      <trkpt lat="48.35395" lon="2.74254">
        <ele>131</ele>
        <time>2015-12-14T11:06:12Z</time>
      </trkpt>
      <trkpt lat="48.35397" lon="2.74232">
        <ele>131</ele>
        <time>2015-12-14T11:08:12Z</time>
      </trkpt>
      <trkpt lat="48.35397" lon="2.74219">
        <ele>131</ele>
        <time>2015-12-14T11:10:12Z</time>
      </trkpt>
      <trkpt lat="48.35388" lon="2.74211">
        <ele>132</ele>
        <time>2015-12-14T11:12:12Z</time>
      </trkpt>
      <trkpt lat="48.35379" lon="2.74211">
        <ele>132</ele>
        <time>2015-12-14T11:14:12Z</time>
      </trkpt>
      <trkpt lat="48.35373" lon="2.74205">
        <ele>132</ele>
        <time>2015-12-14T11:16:12Z</time>
      </trkpt>
      <trkpt lat="48.35364" lon="2.74196">
        <ele>133</ele>
        <time>2015-12-14T11:18:12Z</time>
      </trkpt>
      <trkpt lat="48.3535" lon="2.74189">
        <ele>134</ele>
        <time>2015-12-14T11:20:12Z</time>
      </trkpt>
      <trkpt lat="48.35331" lon="2.74176">
        <ele>135</ele>
        <time>2015-12-14T11:22:12Z</time>
      </trkpt>
      <trkpt lat="48.35321" lon="2.74171">
        <ele>135</ele>
        <time>2015-12-14T11:24:12Z</time>
      </trkpt>
      <trkpt lat="48.35307" lon="2.74159">
        <ele>136</ele>
        <time>2015-12-14T11:26:12Z</time>
      </trkpt>
      <trkpt lat="48.35294" lon="2.74147">
        <ele>137</ele>
        <time>2015-12-14T11:28:12Z</time>
      </trkpt>
      <trkpt lat="48.3528" lon="2.74135">
        <ele>137</ele>
        <time>2015-12-14T11:30:12Z</time>
      </trkpt>
      <trkpt lat="48.35258" lon="2.7412">
        <ele>138</ele>
        <time>2015-12-14T11:32:12Z</time>
      </trkpt>
      <trkpt lat="48.35244" lon="2.74109">
        <ele>138</ele>
        <time>2015-12-14T11:34:12Z</time>
      </trkpt>
      <trkpt lat="48.35232" lon="2.74098">
        <ele>138</ele>
        <time>2015-12-14T11:36:12Z</time>
      </trkpt>
      <trkpt lat="48.3521" lon="2.74085">
        <ele>138</ele>
        <time>2015-12-14T11:38:12Z</time>
      </trkpt>
      <trkpt lat="48.35194" lon="2.74074">
        <ele>137</ele>
        <time>2015-12-14T11:40:12Z</time>
      </trkpt>
      <trkpt lat="48.3518" lon="2.74063">
        <ele>137</ele>
        <time>2015-12-14T11:42:12Z</time>
      </trkpt>
      <trkpt lat="48.35173" lon="2.74056">
        <ele>136</ele>
        <time>2015-12-14T11:44:12Z</time>
      </trkpt>
      <trkpt lat="48.35166" lon="2.74046">
        <ele>136</ele>
        <time>2015-12-14T11:46:12Z</time>
      </trkpt>
      <trkpt lat="48.35153" lon="2.7404">
        <ele>137</ele>
        <time>2015-12-14T11:48:12Z</time>
      </trkpt>
      <trkpt lat="48.35139" lon="2.74035">
        <ele>137</ele>
        <time>2015-12-14T11:50:12Z</time>
      </trkpt>
      <trkpt lat="48.3514" lon="2.74021">
        <ele>137</ele>
        <time>2015-12-14T11:52:12Z</time>
      </trkpt>
      <trkpt lat="48.35142" lon="2.74006">
        <ele>137</ele>
        <time>2015-12-14T11:54:12Z</time>
      </trkpt>
      <trkpt lat="48.35144" lon="2.73983">
        <ele>136</ele>
        <time>2015-12-14T11:56:12Z</time>
      </trkpt>
      <trkpt lat="48.35145" lon="2.73961">
        <ele>136</ele>
        <time>2015-12-14T11:58:12Z</time>
      </trkpt>
      <trkpt lat="48.3514" lon="2.73928">
        <ele>135</ele>
        <time>2015-12-14T12:00:12Z</time>
      </trkpt>
      <trkpt lat="48.35127" lon="2.73857">
        <ele>134</ele>
        <time>2015-12-14T12:02:12Z</time>
      </trkpt>
      <trkpt lat="48.35121" lon="2.73816">
        <ele>134</ele>
        <time>2015-12-14T12:04:12Z</time>
      </trkpt>
      <trkpt lat="48.35115" lon="2.73779">
        <ele>134</ele>
        <time>2015-12-14T12:06:12Z</time>
      </trkpt>
      <trkpt lat="48.35111" lon="2.73755">
        <ele>134</ele>
        <time>2015-12-14T12:08:12Z</time>
      </trkpt>
      <trkpt lat="48.35108" lon="2.73734">
        <ele>134</ele>
        <time>2015-12-14T12:10:12Z</time>
      </trkpt>
      <trkpt lat="48.35108" lon="2.73719">
        <ele>134</ele>
        <time>2015-12-14T12:12:12Z</time>
      </trkpt>
      <trkpt lat="48.3511" lon="2.73681">
        <ele>132</ele>
        <time>2015-12-14T12:14:12Z</time>
      </trkpt>
      <trkpt lat="48.35111" lon="2.73639">
        <ele>131</ele>
        <time>2015-12-14T12:16:12Z</time>
      </trkpt>
      <trkpt lat="48.35111" lon="2.73609">
        <ele>129</ele>
        <time>2015-12-14T12:18:12Z</time>
      </trkpt>
      <trkpt lat="48.35112" lon="2.73587">
        <ele>128</ele>
        <time>2015-12-14T12:20:12Z</time>
      </trkpt>
      <trkpt lat="48.35115" lon="2.73542">
        <ele>126</ele>
        <time>2015-12-14T12:22:12Z</time>
      </trkpt>
      <trkpt lat="48.35117" lon="2.73508">
        <ele>124</ele>
        <time>2015-12-14T12:24:12Z</time>
      </trkpt>
      <trkpt lat="48.35121" lon="2.73461">
        <ele>123</ele>
        <time>2015-12-14T12:26:12Z</time>
      </trkpt>
      <trkpt lat="48.35121" lon="2.7344">
        <ele>123</ele>
        <time>2015-12-14T12:28:12Z</time>
      </trkpt>
      <trkpt lat="48.35121" lon="2.73415">
        <ele>122</ele>
        <time>2015-12-14T12:30:12Z</time>
      </trkpt>
      <trkpt lat="48.35122" lon="2.734">
        <ele>122</ele>
        <time>2015-12-14T12:32:12Z</time>
      </trkpt>
      <trkpt lat="48.35122" lon="2.73374">
        <ele>120</ele>
        <time>2015-12-14T12:34:12Z</time>
      </trkpt>
      <trkpt lat="48.35124" lon="2.73355">
        <ele>119</ele>
        <time>2015-12-14T12:36:12Z</time>
      </trkpt>
      <trkpt lat="48.35127" lon="2.73336">
        <ele>118</ele>
        <time>2015-12-14T12:38:12Z</time>
      </trkpt>
      <trkpt lat="48.3513" lon="2.73321">
        <ele>117</ele>
        <time>2015-12-14T12:40:12Z</time>
      </trkpt>
      <trkpt lat="48.35136" lon="2.73302">
        <ele>115</ele>
        <time>2015-12-14T12:42:12Z</time>
      </trkpt>
      <trkpt lat="48.35141" lon="2.73285">
        <ele>114</ele>
        <time>2015-12-14T12:44:12Z</time>
      </trkpt>
      <trkpt lat="48.35161" lon="2.73227">
        <ele>111</ele>
        <time>2015-12-14T12:46:12Z</time>
      </trkpt>
      <trkpt lat="48.35165" lon="2.73184">
        <ele>110</ele>
        <time>2015-12-14T12:48:12Z</time>
      </trkpt>
      <trkpt lat="48.35183" lon="2.73134">
        <ele>110</ele>
        <time>2015-12-14T12:50:12Z</time>
      </trkpt>
      <trkpt lat="48.35212" lon="2.73054">
        <ele>108</ele>
        <time>2015-12-14T12:52:12Z</time>
      </trkpt>
      <trkpt lat="48.35227" lon="2.73036">
        <ele>107</ele>
        <time>2015-12-14T12:54:12Z</time>
      </trkpt>
      <trkpt lat="48.35238" lon="2.73022">
        <ele>106</ele>
        <time>2015-12-14T12:56:12Z</time>
      </trkpt>
      <trkpt lat="48.35249" lon="2.73006">
        <ele>105</ele>
        <time>2015-12-14T12:58:12Z</time>
      </trkpt>
      <trkpt lat="48.35255" lon="2.73">
        <ele>105</ele>
        <time>2015-12-14T13:00:12Z</time>
      </trkpt>
      <trkpt lat="48.35277" lon="2.72962">
        <ele>103</ele>
        <time>2015-12-14T13:02:12Z</time>
      </trkpt>
      <trkpt lat="48.35316" lon="2.72906">
        <ele>99</ele>
        <time>2015-12-14T13:04:12Z</time>
      </trkpt>
      <trkpt lat="48.35338" lon="2.72874">
        <ele>96</ele>
        <time>2015-12-14T13:06:12Z</time>
      </trkpt>
      <trkpt lat="48.35354" lon="2.72854">
        <ele>95</ele>
        <time>2015-12-14T13:08:12Z</time>
      </trkpt>
      <trkpt lat="48.35368" lon="2.72837">
        <ele>94</ele>
        <time>2015-12-14T13:10:12Z</time>
      </trkpt>
      <trkpt lat="48.35376" lon="2.72824">
        <ele>94</ele>
        <time>2015-12-14T13:12:12Z</time>
      </trkpt>
      <trkpt lat="48.35384" lon="2.72809">
        <ele>94</ele>
        <time>2015-12-14T13:14:12Z</time>
      </trkpt>
      <trkpt lat="48.35395" lon="2.72797">
        <ele>95</ele>
        <time>2015-12-14T13:16:12Z</time>
      </trkpt>
    </trkseg>
  </trk>
</gpx>